createdAt,value
2018-11-12T00:01:29.379Z,78.78
2018-11-12T00:03:57.902Z,78.89
2018-11-12T00:06:26.173Z,78.74
2018-11-12T00:08:54.455Z,78.64
2018-11-12T00:11:22.660Z,78.61
2018-11-12T00:13:50.830Z,78.55
2018-11-12T00:16:19.014Z,78.55
2018-11-12T00:18:47.183Z,78.39
2018-11-12T00:21:15.526Z,78.47
2018-11-12T00:23:43.876Z,78.08
2018-11-12T00:26:12.062Z,78.38
2018-11-12T00:28:40.263Z,78.41
2018-11-12T00:31:08.434Z,78.28
2018-11-12T00:33:36.623Z,78.31
2018-11-12T00:36:04.812Z,78.29
2018-11-12T00:38:33.012Z,78.32
2018-11-12T00:41:01.247Z,78.31
2018-11-12T00:43:29.396Z,78.54
2018-11-12T00:45:57.583Z,78.64
2018-11-12T00:48:25.775Z,78.59
2018-11-12T00:50:53.938Z,78.78
2018-11-12T00:53:22.263Z,78.86
2018-11-12T00:55:50.451Z,78.93
2018-11-12T00:58:18.627Z,79.00
2018-11-12T01:00:46.818Z,78.85
2018-11-12T01:03:15.015Z,78.76
2018-11-12T01:05:43.194Z,78.82
2018-11-12T01:08:11.448Z,78.90
2018-11-12T01:10:39.628Z,78.87
2018-11-12T01:13:07.801Z,78.85
2018-11-12T01:15:35.981Z,78.82
2018-11-12T01:18:04.183Z,78.80
2018-11-12T01:20:32.380Z,78.69
2018-11-12T01:23:00.572Z,78.84
2018-11-12T01:25:28.759Z,78.87
2018-11-12T01:27:56.923Z,78.93
2018-11-12T01:30:25.102Z,78.87
2018-11-12T01:32:53.284Z,78.96
2018-11-12T01:35:21.475Z,79.11
2018-11-12T01:37:49.650Z,79.33
2018-11-12T01:40:17.843Z,79.53
2018-11-12T01:42:46.187Z,79.53
2018-11-12T01:45:16.219Z,79.57
2018-11-12T01:47:45.568Z,79.55
2018-11-12T01:50:14.200Z,79.59
2018-11-12T01:52:43.193Z,79.94
2018-11-12T01:55:12.492Z,80.13
2018-11-12T01:57:40.688Z,80.01
2018-11-12T02:00:14.391Z,80.34
2018-11-12T02:02:43.675Z,80.53
2018-11-12T02:05:11.886Z,80.74
2018-11-12T02:07:40.267Z,81.10
2018-11-12T02:10:10.144Z,80.96
2018-11-12T02:12:38.528Z,80.90
2018-11-12T02:15:08.932Z,81.13
2018-11-12T02:17:37.327Z,81.04
2018-11-12T02:20:06.779Z,80.86
2018-11-12T02:22:34.977Z,81.19
2018-11-12T02:25:03.188Z,81.42
2018-11-12T02:27:31.351Z,81.73
2018-11-12T02:29:59.581Z,81.96
2018-11-12T02:32:27.763Z,81.80
2018-11-12T02:34:55.955Z,81.63
2018-11-12T02:37:24.135Z,81.21
2018-11-12T02:39:52.359Z,81.22
2018-11-12T02:42:20.548Z,81.32
2018-11-12T02:44:48.753Z,81.03
2018-11-12T02:47:16.926Z,81.06
2018-11-12T02:49:45.116Z,81.17
2018-11-12T02:52:13.323Z,81.00
2018-11-12T02:54:41.488Z,80.98
2018-11-12T02:57:09.665Z,81.02
2018-11-12T02:59:37.897Z,81.01
2018-11-12T03:02:06.106Z,81.22
2018-11-12T03:04:34.291Z,81.20
2018-11-12T03:07:02.456Z,81.06
2018-11-12T03:09:30.614Z,81.19
2018-11-12T03:11:58.787Z,81.30
2018-11-12T03:14:26.979Z,81.14
2018-11-12T03:16:55.159Z,81.30
2018-11-12T03:19:23.343Z,81.27
2018-11-12T03:21:51.540Z,81.45
2018-11-12T03:24:19.700Z,81.45
2018-11-12T03:26:47.892Z,81.29
2018-11-12T03:29:16.072Z,81.09
2018-11-12T03:31:44.246Z,81.36
2018-11-12T03:34:12.438Z,81.33
2018-11-12T03:36:40.611Z,81.80
2018-11-12T03:39:09.524Z,81.90
2018-11-12T03:41:37.904Z,81.75
2018-11-12T03:44:06.096Z,81.99
2018-11-12T03:46:34.272Z,82.41
2018-11-12T03:49:02.455Z,82.58
2018-11-12T03:51:30.651Z,82.37
2018-11-12T03:53:58.856Z,82.55
2018-11-12T03:56:27.028Z,82.74
2018-11-12T03:58:55.216Z,82.62
2018-11-12T04:01:27.124Z,82.32
2018-11-12T04:03:55.363Z,82.12
2018-11-12T04:06:23.535Z,82.18
2018-11-12T04:08:51.723Z,82.17
2018-11-12T04:11:19.899Z,82.36
2018-11-12T04:13:48.099Z,82.54
2018-11-12T04:16:16.279Z,82.45
2018-11-12T04:18:44.462Z,82.44
2018-11-12T04:21:12.656Z,82.16
2018-11-12T04:23:40.819Z,82.47
2018-11-12T04:26:09.002Z,82.59
2018-11-12T04:28:37.234Z,82.56
2018-11-12T04:31:05.395Z,82.67
2018-11-12T04:33:33.564Z,82.60
2018-11-12T04:36:01.735Z,82.51
2018-11-12T04:38:29.907Z,82.42
2018-11-12T04:40:58.099Z,82.43
2018-11-12T04:43:26.263Z,82.53
2018-11-12T04:45:54.418Z,82.46
2018-11-12T04:48:22.610Z,82.29
2018-11-12T04:50:50.804Z,82.38
2018-11-12T04:53:18.984Z,82.48
2018-11-12T04:55:47.203Z,82.54
2018-11-12T04:58:15.379Z,82.51
2018-11-12T05:00:43.587Z,82.62
2018-11-12T05:03:11.768Z,82.50
2018-11-12T05:05:39.951Z,82.51
2018-11-12T05:08:08.119Z,82.43
2018-11-12T05:10:36.295Z,82.48
2018-11-12T05:13:04.583Z,82.44
2018-11-12T05:15:32.770Z,82.84
2018-11-12T05:18:00.947Z,83.22
2018-11-12T05:20:30.110Z,83.18
2018-11-12T05:22:58.436Z,82.95
2018-11-12T05:25:26.614Z,83.08
2018-11-12T05:27:54.795Z,83.30
2018-11-12T05:30:24.223Z,83.10
2018-11-12T05:32:52.423Z,82.87
2018-11-12T05:35:21.806Z,82.95
2018-11-12T05:37:50.005Z,82.60
2018-11-12T05:40:19.486Z,82.81
2018-11-12T05:42:47.683Z,82.66
2018-11-12T05:45:20.011Z,82.54
2018-11-12T05:47:48.179Z,82.67
2018-11-12T05:50:18.841Z,82.74
2018-11-12T05:52:48.260Z,82.49
2018-11-12T05:55:17.747Z,82.71
2018-11-12T05:57:46.448Z,82.53
2018-11-12T06:00:16.359Z,82.50
2018-11-12T06:02:44.574Z,82.45
2018-11-12T06:05:13.823Z,82.32
2018-11-12T06:07:42.143Z,82.69
2018-11-12T06:10:13.144Z,82.68
2018-11-12T06:12:41.829Z,82.53
2018-11-12T06:15:10.712Z,82.80
2018-11-12T06:17:39.295Z,82.43
2018-11-12T06:20:10.846Z,82.32
2018-11-12T06:22:39.055Z,82.36
2018-11-12T06:25:07.843Z,82.27
2018-11-12T06:27:36.198Z,82.36
2018-11-12T06:30:05.252Z,82.17
2018-11-12T06:32:33.421Z,82.23
2018-11-12T06:35:01.616Z,82.26
2018-11-12T06:37:29.807Z,82.25
2018-11-12T06:39:58.000Z,82.25
2018-11-12T06:42:26.303Z,82.16
2018-11-12T06:44:54.428Z,82.06
2018-11-12T06:47:22.606Z,82.15
2018-11-12T06:49:50.774Z,82.22
2018-11-12T06:52:18.932Z,82.13
2018-11-12T06:54:47.099Z,82.13
2018-11-12T06:57:15.258Z,82.27
2018-11-12T06:59:43.453Z,82.15
2018-11-12T07:02:11.604Z,82.17
2018-11-12T07:04:39.763Z,81.93
2018-11-12T07:07:07.991Z,81.92
2018-11-12T07:09:36.118Z,82.17
2018-11-12T07:12:04.400Z,82.25
2018-11-12T07:14:32.576Z,82.13
2018-11-12T07:17:00.751Z,81.69
2018-11-12T07:19:28.916Z,81.57
2018-11-12T07:21:57.102Z,81.68
2018-11-12T07:24:25.281Z,81.59
2018-11-12T07:26:53.447Z,81.51
2018-11-12T07:29:21.640Z,81.26
2018-11-12T07:31:49.812Z,81.28
2018-11-12T07:34:18.016Z,81.30
2018-11-12T07:36:46.175Z,81.21
2018-11-12T07:39:14.336Z,81.30
2018-11-12T07:41:42.550Z,81.18
2018-11-12T07:44:10.712Z,81.10
2018-11-12T07:46:38.884Z,81.32
2018-11-12T07:49:07.055Z,81.24
2018-11-12T07:51:35.226Z,81.28
2018-11-12T07:54:03.519Z,81.30
2018-11-12T07:56:31.747Z,81.35
2018-11-12T07:58:59.852Z,81.17
2018-11-12T08:01:28.023Z,81.30
2018-11-12T08:03:56.179Z,81.56
2018-11-12T08:06:24.340Z,81.70
2018-11-12T08:08:52.544Z,81.66
2018-11-12T08:11:20.764Z,81.51
2018-11-12T08:13:48.952Z,81.63
2018-11-12T08:16:17.147Z,81.56
2018-11-12T08:18:51.867Z,81.71
2018-11-12T08:21:20.044Z,81.74
2018-11-12T08:23:48.215Z,81.72
2018-11-12T08:26:16.388Z,81.85
2018-11-12T08:28:44.562Z,82.14
2018-11-12T08:31:12.737Z,81.97
2018-11-12T08:33:40.905Z,81.68
2018-11-12T08:36:09.105Z,81.81
2018-11-12T08:38:37.279Z,81.85
2018-11-12T08:41:05.579Z,81.83
2018-11-12T08:43:33.675Z,81.53
2018-11-12T08:46:01.864Z,81.78
2018-11-12T08:48:30.022Z,81.66
2018-11-12T08:50:58.188Z,81.82
2018-11-12T08:53:26.357Z,81.62
2018-11-12T08:55:54.530Z,81.78
2018-11-12T08:58:22.706Z,81.81
2018-11-12T09:00:51.008Z,80.41
2018-11-12T09:03:19.059Z,80.06
2018-11-12T09:05:47.263Z,78.92
2018-11-12T09:08:15.423Z,78.12
2018-11-12T09:10:43.647Z,77.42
2018-11-12T09:13:11.816Z,76.42
2018-11-12T09:15:40.011Z,76.00
2018-11-12T09:18:08.168Z,76.02
2018-11-12T09:20:36.358Z,76.00
2018-11-12T09:23:04.648Z,75.36
2018-11-12T09:25:32.827Z,74.48
2018-11-12T09:28:00.986Z,73.32
2018-11-12T09:30:29.996Z,73.02
2018-11-12T09:32:58.184Z,73.76
2018-11-12T09:35:28.598Z,73.46
2018-11-12T09:37:57.580Z,73.57
2018-11-12T09:40:28.287Z,74.24
2018-11-12T09:42:56.489Z,74.63
2018-11-12T09:45:24.642Z,74.74
2018-11-12T09:47:52.906Z,74.21
2018-11-12T09:50:22.355Z,74.51
2018-11-12T09:52:51.739Z,74.04
2018-11-12T09:55:20.679Z,74.29
2018-11-12T09:57:50.339Z,74.34
2018-11-12T10:00:19.759Z,74.30
2018-11-12T10:02:49.221Z,73.72
2018-11-12T10:05:18.199Z,73.22
2018-11-12T10:07:48.590Z,71.81
2018-11-12T10:10:23.449Z,71.45
2018-11-12T10:12:51.009Z,71.23
2018-11-12T10:15:18.826Z,69.63
2018-11-12T10:17:46.606Z,69.39
2018-11-12T10:20:12.462Z,68.15
2018-11-12T10:22:40.782Z,68.03
2018-11-12T10:25:08.943Z,67.34
2018-11-12T10:27:37.135Z,68.49
2018-11-12T10:30:06.187Z,66.25
2018-11-12T10:32:34.348Z,66.56
2018-11-12T10:35:02.508Z,66.06
2018-11-12T10:37:30.668Z,65.10
2018-11-12T10:39:58.847Z,65.67
2018-11-12T10:42:27.000Z,65.68
2018-11-12T10:44:55.156Z,64.44
2018-11-12T10:47:23.655Z,64.46
2018-11-12T10:49:52.550Z,64.24
2018-11-12T10:52:20.708Z,64.57
2018-11-12T10:54:48.965Z,63.26
2018-11-12T10:57:17.039Z,62.39
2018-11-12T10:59:45.256Z,63.54
2018-11-12T11:02:18.596Z,63.85
2018-11-12T11:04:46.747Z,63.03
2018-11-12T11:07:14.914Z,61.89
2018-11-12T11:09:43.071Z,62.32
2018-11-12T11:12:11.282Z,62.46
2018-11-12T11:14:39.451Z,63.42
2018-11-12T11:17:07.619Z,62.14
2018-11-12T11:19:35.788Z,61.32
2018-11-12T11:22:03.963Z,60.44
2018-11-12T11:24:32.131Z,59.72
2018-11-12T11:27:00.897Z,59.34
2018-11-12T11:29:29.067Z,58.99
2018-11-12T11:31:57.226Z,59.50
2018-11-12T11:34:25.374Z,58.90
2018-11-12T11:36:53.537Z,60.13
2018-11-12T11:39:21.700Z,60.59
2018-11-12T11:41:49.873Z,60.70
2018-11-12T11:44:18.022Z,60.93
2018-11-12T11:46:46.163Z,60.94
2018-11-12T11:49:14.335Z,58.51
2018-11-12T11:51:42.531Z,57.03
2018-11-12T11:54:10.651Z,57.62
2018-11-12T11:56:38.944Z,57.71
2018-11-12T11:59:06.979Z,59.08
2018-11-12T12:01:35.155Z,59.05
2018-11-12T12:04:03.322Z,58.35
2018-11-12T12:06:31.779Z,56.16
2018-11-12T12:08:59.982Z,56.64
2018-11-12T12:11:28.112Z,56.92
2018-11-12T12:13:56.269Z,56.79
2018-11-12T12:16:24.470Z,57.67
2018-11-12T12:18:52.663Z,56.63
2018-11-12T12:21:20.927Z,56.57
2018-11-12T12:23:49.095Z,56.81
2018-11-12T12:26:17.255Z,56.59
2018-11-12T12:28:45.419Z,58.04
2018-11-12T12:31:14.037Z,58.40
2018-11-12T12:33:42.198Z,58.45
2018-11-12T12:36:10.456Z,58.38
2018-11-12T12:38:38.515Z,57.94
2018-11-12T12:41:06.672Z,57.43
2018-11-12T12:43:34.822Z,58.29
2018-11-12T12:46:03.074Z,58.50
2018-11-12T12:48:31.151Z,57.61
2018-11-12T12:50:59.307Z,58.03
2018-11-12T12:53:27.462Z,59.32
2018-11-12T12:55:55.803Z,57.47
2018-11-12T12:58:23.831Z,57.58
2018-11-12T13:00:51.967Z,57.71
2018-11-12T13:03:20.119Z,58.50
2018-11-12T13:05:48.271Z,58.65
2018-11-12T13:08:16.435Z,59.24
2018-11-12T13:10:44.600Z,59.11
2018-11-12T13:13:12.739Z,58.40
2018-11-12T13:15:40.902Z,58.81
2018-11-12T13:18:09.100Z,59.55
2018-11-12T13:20:37.307Z,59.63
2018-11-12T13:23:05.466Z,60.36
2018-11-12T13:25:33.638Z,60.61
2018-11-12T13:28:01.792Z,62.94
2018-11-12T13:30:29.940Z,66.91
2018-11-12T13:32:58.096Z,69.97
2018-11-12T13:35:26.475Z,71.60
2018-11-12T13:37:54.630Z,73.06
2018-11-12T13:40:23.949Z,73.93
2018-11-12T13:42:53.884Z,74.67
2018-11-12T13:45:22.300Z,75.04
2018-11-12T13:47:50.530Z,74.95
2018-11-12T13:50:20.031Z,75.14
2018-11-12T13:52:48.757Z,75.30
2018-11-12T13:55:18.170Z,75.24
2018-11-12T13:57:46.375Z,75.51
2018-11-12T14:00:16.021Z,75.75
2018-11-12T14:02:45.260Z,75.55
2018-11-12T14:05:15.366Z,75.98
2018-11-12T14:07:44.044Z,76.28
2018-11-12T14:10:16.566Z,75.56
2018-11-12T14:12:45.282Z,76.09
2018-11-12T14:15:16.215Z,75.51
2018-11-12T14:17:44.919Z,75.91
2018-11-12T14:20:13.501Z,75.90
2018-11-12T14:22:41.862Z,75.07
2018-11-12T14:25:11.670Z,75.65
2018-11-12T14:27:39.942Z,75.83
2018-11-12T14:30:09.849Z,76.00
2018-11-12T14:32:39.041Z,75.78
2018-11-12T14:35:07.875Z,75.98
2018-11-12T14:37:36.351Z,76.05
2018-11-12T14:40:05.317Z,75.80
2018-11-12T14:42:33.744Z,75.94
2018-11-12T14:45:02.007Z,75.87
2018-11-12T14:47:30.379Z,75.85
2018-11-12T14:49:58.750Z,75.50
2018-11-12T14:52:27.011Z,75.93
2018-11-12T14:54:55.276Z,75.45
2018-11-12T14:57:23.524Z,74.94
2018-11-12T14:59:51.924Z,74.93
2018-11-12T15:02:20.295Z,74.48
2018-11-12T15:04:48.607Z,73.94
2018-11-12T15:07:16.866Z,73.15
2018-11-12T15:09:45.175Z,73.62
2018-11-12T15:12:13.426Z,73.84
2018-11-12T15:14:41.715Z,74.41
2018-11-12T15:17:09.912Z,74.29
2018-11-12T15:19:38.177Z,74.22
2018-11-12T15:22:06.466Z,74.17
2018-11-12T15:24:35.146Z,73.34
2018-11-12T15:27:04.008Z,73.65
2018-11-12T15:29:32.371Z,73.64
2018-11-12T15:32:00.643Z,73.72
2018-11-12T15:34:29.258Z,73.70
2018-11-12T15:36:57.661Z,74.09
2018-11-12T15:39:25.866Z,74.12
2018-11-12T15:41:54.232Z,74.46
2018-11-12T15:44:22.459Z,74.34
2018-11-12T15:46:50.710Z,74.77
2018-11-12T15:49:18.915Z,74.63
2018-11-12T15:51:47.095Z,74.88
2018-11-12T15:54:15.472Z,74.91
2018-11-12T15:56:43.643Z,74.98
2018-11-12T15:59:11.822Z,75.30
2018-11-12T16:01:40.107Z,75.13
2018-11-12T16:04:08.364Z,75.14
2018-11-12T16:06:36.682Z,74.08
2018-11-12T16:09:09.335Z,73.70
2018-11-12T16:11:37.506Z,73.99
2018-11-12T16:14:06.504Z,74.04
2018-11-12T16:16:34.863Z,73.65
2018-11-12T16:19:03.058Z,73.77
2018-11-12T16:21:31.228Z,73.96
2018-11-12T16:23:59.516Z,74.09
2018-11-12T16:26:27.849Z,74.09
2018-11-12T16:28:59.166Z,73.70
2018-11-12T16:31:27.614Z,73.69
2018-11-12T16:33:55.776Z,73.73
2018-11-12T16:36:23.962Z,73.01
2018-11-12T16:38:52.236Z,72.92
2018-11-12T16:41:20.402Z,73.15
2018-11-12T16:43:48.578Z,72.82
2018-11-12T16:46:16.751Z,72.82
2018-11-12T16:48:44.894Z,73.18
2018-11-12T16:51:13.075Z,73.25
2018-11-12T16:53:41.255Z,73.02
2018-11-12T16:56:09.438Z,72.84
2018-11-12T16:58:37.814Z,73.19
2018-11-12T17:01:06.061Z,73.34
2018-11-12T17:03:34.377Z,73.35
2018-11-12T17:06:02.544Z,73.49
2018-11-12T17:08:30.732Z,73.70
2018-11-12T17:10:58.911Z,73.79
2018-11-12T17:13:27.076Z,73.89
2018-11-12T17:15:55.234Z,73.70
2018-11-12T17:18:23.499Z,73.73
2018-11-12T17:20:51.774Z,73.87
2018-11-12T17:23:20.055Z,73.97
2018-11-12T17:25:48.314Z,74.18
2018-11-12T17:28:16.641Z,74.23
2018-11-12T17:30:44.911Z,74.32
2018-11-12T17:33:13.056Z,73.70
2018-11-12T17:35:41.265Z,73.91
2018-11-12T17:38:09.650Z,73.88
2018-11-12T17:40:38.014Z,73.84
2018-11-12T17:43:06.756Z,74.12
2018-11-12T17:45:35.271Z,74.14
2018-11-12T17:48:03.678Z,74.10
2018-11-12T17:50:31.842Z,74.19
2018-11-12T17:53:00.055Z,74.29
2018-11-12T17:55:28.245Z,73.70
2018-11-12T17:57:56.403Z,74.17
2018-11-12T18:00:28.960Z,73.93
2018-11-12T18:02:57.323Z,73.92
2018-11-12T18:05:25.487Z,73.72
2018-11-12T18:07:53.799Z,73.98
2018-11-12T18:10:21.856Z,73.96
2018-11-12T18:12:50.060Z,74.16
2018-11-12T18:15:19.489Z,74.60
2018-11-12T18:17:47.765Z,74.83
2018-11-12T18:20:19.656Z,74.98
2018-11-12T18:22:48.136Z,74.62
2018-11-12T18:25:16.647Z,74.50
2018-11-12T18:27:44.997Z,74.49
2018-11-12T18:30:15.639Z,74.27
2018-11-12T18:32:44.423Z,73.91
2018-11-12T18:35:12.636Z,73.93
2018-11-12T18:37:40.878Z,74.20
2018-11-12T18:40:10.672Z,74.25
2018-11-12T18:42:38.892Z,74.35
2018-11-12T18:45:11.840Z,74.55
2018-11-12T18:47:40.314Z,74.57
2018-11-12T18:50:12.264Z,74.74
2018-11-12T18:52:40.687Z,74.75
2018-11-12T18:55:09.475Z,74.41
2018-11-12T18:57:38.628Z,73.91
2018-11-12T19:00:08.799Z,73.84
2018-11-12T19:02:37.039Z,73.44
2018-11-12T19:05:07.062Z,73.90
2018-11-12T19:07:35.287Z,74.10
2018-11-12T19:10:03.656Z,73.84
2018-11-12T19:12:31.884Z,73.79
2018-11-12T19:15:00.357Z,73.86
2018-11-12T19:17:28.603Z,73.89
2018-11-12T19:19:56.819Z,74.05
2018-11-12T19:22:25.019Z,73.83
2018-11-12T19:24:53.223Z,73.47
2018-11-12T19:27:21.539Z,73.84
2018-11-12T19:29:49.906Z,73.74
2018-11-12T19:32:18.171Z,73.84
2018-11-12T19:34:46.450Z,74.08
2018-11-12T19:37:14.684Z,74.31
2018-11-12T19:39:43.224Z,74.69
2018-11-12T19:42:11.377Z,74.79
2018-11-12T19:44:39.760Z,74.95
2018-11-12T19:47:08.127Z,74.88
2018-11-12T19:49:36.642Z,75.22
2018-11-12T19:52:04.839Z,75.35
2018-11-12T19:54:33.023Z,75.37
2018-11-12T19:57:01.171Z,75.39
2018-11-12T19:59:29.336Z,75.54
2018-11-12T20:01:57.506Z,75.64
2018-11-12T20:04:25.704Z,75.58
2018-11-12T20:06:53.867Z,75.71
2018-11-12T20:09:22.763Z,75.43
2018-11-12T20:11:50.947Z,75.51
2018-11-12T20:14:19.139Z,75.45
2018-11-12T20:16:47.299Z,75.47
2018-11-12T20:19:15.504Z,75.35
2018-11-12T20:21:43.744Z,75.28
2018-11-12T20:24:11.971Z,74.78
2018-11-12T20:26:40.212Z,74.48
2018-11-12T20:29:08.803Z,73.77
2018-11-12T20:31:36.962Z,73.93
2018-11-12T20:34:05.409Z,74.11
2018-11-12T20:36:33.631Z,74.17
2018-11-12T20:39:01.845Z,74.14
2018-11-12T20:41:29.931Z,73.34
2018-11-12T20:43:58.103Z,73.48
2018-11-12T20:46:26.277Z,73.46
2018-11-12T20:48:54.464Z,73.11
2018-11-12T20:51:22.623Z,73.13
2018-11-12T20:53:50.800Z,73.46
2018-11-12T20:56:18.967Z,73.53
2018-11-12T20:58:47.176Z,73.70
2018-11-12T21:01:15.308Z,73.84
2018-11-12T21:03:43.491Z,74.03
2018-11-12T21:06:11.659Z,74.20
2018-11-12T21:08:39.836Z,74.18
2018-11-12T21:11:08.000Z,73.78
2018-11-12T21:13:36.331Z,73.33
2018-11-12T21:16:04.504Z,72.98
2018-11-12T21:18:32.668Z,73.15
2018-11-12T21:21:00.834Z,73.22
2018-11-12T21:23:29.052Z,72.74
2018-11-12T21:25:57.241Z,72.34
2018-11-12T21:28:25.415Z,71.89
2018-11-12T21:30:53.672Z,71.87
2018-11-12T21:33:21.842Z,72.15
2018-11-12T21:35:49.999Z,72.41
2018-11-12T21:38:18.151Z,72.53
2018-11-12T21:40:46.327Z,72.48
2018-11-12T21:43:14.623Z,72.72
2018-11-12T21:45:42.651Z,72.68
2018-11-12T21:48:10.979Z,72.97
2018-11-12T21:50:39.145Z,73.17
2018-11-12T21:53:07.319Z,73.17
2018-11-12T21:55:35.495Z,73.23
2018-11-12T21:58:03.680Z,73.06
2018-11-12T22:00:31.842Z,73.22
2018-11-12T22:03:01.344Z,72.86
2018-11-12T22:05:30.331Z,72.74
2018-11-12T22:07:58.516Z,72.72
2018-11-12T22:10:26.708Z,72.64
2018-11-12T22:12:55.175Z,72.95
2018-11-12T22:15:23.645Z,73.15
2018-11-12T22:17:52.022Z,72.96
2018-11-12T22:20:21.518Z,73.08
2018-11-12T22:22:49.703Z,72.92
2018-11-12T22:25:19.110Z,73.18
2018-11-12T22:27:48.022Z,73.25
2018-11-12T22:30:18.420Z,73.27
2018-11-12T22:32:47.833Z,73.40
2018-11-12T22:35:15.982Z,73.41
2018-11-12T22:37:44.760Z,73.55
2018-11-12T22:40:13.789Z,73.72
2018-11-12T22:42:42.674Z,73.85
2018-11-12T22:45:12.919Z,73.80
2018-11-12T22:47:41.176Z,74.06
2018-11-12T22:50:09.939Z,74.02
2018-11-12T22:52:38.551Z,74.16
2018-11-12T22:55:06.882Z,74.24
2018-11-12T22:57:35.047Z,74.33
2018-11-12T23:00:03.404Z,74.38
2018-11-12T23:02:31.570Z,74.49
2018-11-12T23:04:59.730Z,74.49
2018-11-12T23:07:27.905Z,74.43
2018-11-12T23:09:56.058Z,74.50
2018-11-12T23:12:24.279Z,74.55
2018-11-12T23:14:52.411Z,74.81
2018-11-12T23:17:20.581Z,74.90
2018-11-12T23:19:48.771Z,75.12
2018-11-12T23:22:16.897Z,75.49
2018-11-12T23:24:45.413Z,75.51
2018-11-12T23:27:13.554Z,75.68
2018-11-12T23:29:41.721Z,76.21
2018-11-12T23:32:09.913Z,76.52
2018-11-12T23:34:38.081Z,76.74
2018-11-12T23:37:06.278Z,76.77
2018-11-12T23:39:34.466Z,76.54
2018-11-12T23:42:02.655Z,76.51
2018-11-12T23:44:30.833Z,76.44
2018-11-12T23:46:59.408Z,76.30
2018-11-12T23:49:27.226Z,76.31
2018-11-12T23:51:55.391Z,76.37
2018-11-12T23:54:23.562Z,76.75
2018-11-12T23:56:51.743Z,76.90
2018-11-12T23:59:19.908Z,77.07
